Accueil
METAR-TAF:

METAR-TAF

Aéroports :

Aérodrome de Payerne

Payerne, Suisse

latitude: 46-49N, longitude: 006-57E, altitude: 490 m

Observation

Le bulletin a été fait il y a 17 minutes, à 03:50 UTC
Vent 1 kt de sud-est
Température 18°C
Humidité 94%
Pression 1018 hPa
Visibilité: 7000 m
Quelques nuages à une hauteur de 6700 ft

METAR: LSMP 190350Z AUTO 14001KT 7000NDV FEW067 18/17 Q1018 RMK

Heure: 06:07 (04:07 UTC)


TAF: absent

Observations et prévisions météorologiques de plus de 4000 aéroports (messages METAR et TAF).

Les stations disponibles sont représentées par des disques jaunes et rouges sur la carte.

Passer la souris dessus pour voir le nom de la station.

Cliquer dessus pour voir les observations et prévisions météorologiques.

Pour changer de carte: cliquez sur les boutons verts avec une croix noire pour zoomer, sur le bouton vert avec un tiret pour effectuer un zoom arrière, ou sur les flèches vertes pour les cartes adjacentes.


METAR-TAF: